Time;durP1;ratioP1;P1;durP2;ratioP2;P2;SDS_P1;SDS_P2;PMS_P1;PMS_P2;Temp;Humidity;BMP_temperature;BMP_pressure;BME280_temperature;BME280_humidity;BME280_pressure;Samples;Min_cycle;Max_cycle;Signal;HPM_P1;HPM_P2
2021/11/29 00:00:46;;;;;;;3.83;0.73;;;3.50;99.90;;;;;;4999376;28;20217;-51
2021/11/29 00:03:14;;;;;;;4.40;1.13;;;3.60;99.90;;;;;;4998735;28;20214;-53
2021/11/29 00:05:42;;;;;;;0.97;0.80;;;3.60;99.90;;;;;;4998963;28;22193;-55
2021/11/29 00:08:09;;;;;;;1.83;0.83;;;3.70;99.90;;;;;;5000305;28;20592;-52
2021/11/29 00:10:36;;;;;;;3.10;0.87;;;3.60;99.90;;;;;;4998450;28;20294;-53
2021/11/29 00:13:03;;;;;;;3.87;0.80;;;3.60;99.90;;;;;;4998613;28;20720;-53
2021/11/29 00:15:31;;;;;;;4.10;1.33;;;3.50;99.90;;;;;;4997209;28;20576;-53
2021/11/29 00:17:59;;;;;;;1.73;0.87;;;3.60;99.90;;;;;;4999514;28;20907;-54
2021/11/29 00:20:26;;;;;;;2.70;0.73;;;3.60;99.90;;;;;;4998137;28;20277;-52
2021/11/29 00:22:53;;;;;;;3.77;0.90;;;3.60;99.90;;;;;;4996556;28;20251;-51
2021/11/29 00:25:20;;;;;;;2.20;0.80;;;3.60;99.90;;;;;;4998093;28;20721;-55
2021/11/29 00:27:47;;;;;;;1.17;0.80;;;3.50;99.90;;;;;;4998003;28;20788;-53
2021/11/29 00:30:14;;;;;;;1.53;0.97;;;3.50;99.90;;;;;;4998543;28;20607;-53
2021/11/29 00:32:44;;;;;;;1.80;1.00;;;3.50;99.90;;;;;;4999476;28;20344;-52
2021/11/29 00:35:11;;;;;;;1.07;0.63;;;3.50;99.90;;;;;;4995884;28;20897;-54
2021/11/29 00:37:38;;;;;;;2.03;0.90;;;3.40;99.90;;;;;;4997140;28;20755;-54
2021/11/29 00:40:09;;;;;;;1.80;0.97;;;3.40;99.90;;;;;;4997261;28;20238;-52
2021/11/29 00:42:36;;;;;;;1.20;0.80;;;3.40;99.90;;;;;;4999265;28;20247;-53
2021/11/29 00:45:07;;;;;;;2.70;0.80;;;3.50;99.90;;;;;;4998494;28;20364;-52
2021/11/29 00:47:36;;;;;;;2.47;1.10;;;3.40;99.90;;;;;;4997570;28;20234;-53
2021/11/29 00:50:05;;;;;;;2.77;1.40;;;3.40;99.90;;;;;;4994192;28;20232;-54
2021/11/29 00:52:32;;;;;;;1.80;0.80;;;3.50;99.90;;;;;;4998242;28;20233;-51
2021/11/29 00:54:59;;;;;;;1.13;0.83;;;3.50;99.90;;;;;;4998946;28;20292;-51
2021/11/29 00:57:26;;;;;;;0.67;0.67;;;3.50;99.90;;;;;;5000478;28;20322;-55
2021/11/29 00:59:53;;;;;;;1.83;0.80;;;3.50;99.90;;;;;;5000919;28;20305;-53
2021/11/29 01:02:20;;;;;;;1.27;0.87;;;3.50;99.90;;;;;;5000634;28;20212;-53
2021/11/29 01:04:48;;;;;;;1.27;0.77;;;3.50;99.90;;;;;;4998179;28;20617;-55
2021/11/29 01:07:15;;;;;;;1.43;0.60;;;3.40;99.90;;;;;;4999360;28;20203;-53
2021/11/29 01:09:42;;;;;;;4.30;0.70;;;3.40;99.90;;;;;;5001708;28;20209;-55
2021/11/29 01:12:10;;;;;;;3.07;0.70;;;3.50;99.90;;;;;;5001095;28;20207;-53
2021/11/29 01:14:37;;;;;;;2.73;0.90;;;3.50;99.90;;;;;;5001246;28;20254;-53
2021/11/29 01:17:04;;;;;;;1.23;0.70;;;3.40;99.90;;;;;;5000153;28;20677;-53
2021/11/29 01:19:31;;;;;;;0.53;0.47;;;3.50;99.90;;;;;;5002248;28;20210;-54
2021/11/29 01:21:58;;;;;;;2.10;0.70;;;3.50;99.90;;;;;;5001957;28;20253;-54
2021/11/29 01:24:25;;;;;;;1.67;0.80;;;3.40;99.90;;;;;;4999685;28;20820;-52
2021/11/29 01:26:52;;;;;;;1.30;0.60;;;3.40;99.90;;;;;;4998837;28;20344;-52
2021/11/29 01:29:19;;;;;;;0.50;0.50;;;3.50;99.90;;;;;;4999085;28;20360;-53
2021/11/29 01:31:47;;;;;;;0.60;0.50;;;3.50;99.90;;;;;;5001015;28;20242;-52
2021/11/29 01:34:15;;;;;;;2.13;0.63;;;3.40;99.90;;;;;;5001444;28;20212;-53
2021/11/29 01:36:41;;;;;;;2.90;0.80;;;3.40;99.90;;;;;;5002044;28;20675;-54
2021/11/29 01:39:09;;;;;;;5.20;0.70;;;3.50;99.90;;;;;;5000283;28;20253;-52
2021/11/29 01:41:36;;;;;;;2.53;0.83;;;3.50;99.90;;;;;;4999889;28;20573;-54
2021/11/29 01:44:04;;;;;;;1.47;0.50;;;3.50;99.90;;;;;;4998834;28;20233;-53
2021/11/29 01:46:31;;;;;;;0.60;0.33;;;3.60;99.90;;;;;;4999516;28;20344;-52
2021/11/29 01:48:58;;;;;;;4.67;0.80;;;3.50;99.90;;;;;;5000089;28;20305;-53
2021/11/29 01:51:26;;;;;;;1.80;0.70;;;3.60;99.90;;;;;;4997661;28;20282;-53
2021/11/29 01:53:53;;;;;;;1.13;0.50;;;3.60;99.90;;;;;;5002824;28;20313;-55
2021/11/29 01:56:20;;;;;;;2.07;0.50;;;3.50;99.90;;;;;;5000642;28;20276;-53
2021/11/29 01:58:47;;;;;;;1.07;0.50;;;3.60;99.90;;;;;;4999030;28;20240;-52
2021/11/29 02:01:19;;;;;;;3.10;0.60;;;3.60;99.90;;;;;;5000569;28;20599;-52
2021/11/29 02:03:51;;;;;;;0.80;0.57;;;3.60;99.90;;;;;;4999421;28;20219;-53
2021/11/29 02:06:18;;;;;;;0.70;0.67;;;3.70;99.90;;;;;;5000920;28;20214;-54
2021/11/29 02:08:45;;;;;;;0.70;0.47;;;3.60;99.90;;;;;;4997047;28;20972;-51
2021/11/29 02:11:12;;;;;;;2.50;0.37;;;3.50;99.90;;;;;;4998745;28;20690;-52
2021/11/29 02:13:39;;;;;;;0.70;0.40;;;3.60;99.90;;;;;;5000082;28;20244;-55
2021/11/29 02:16:07;;;;;;;3.60;0.50;;;3.50;99.90;;;;;;5000387;28;20353;-51
2021/11/29 02:18:40;;;;;;;4.30;0.47;;;3.60;99.90;;;;;;4999088;28;20226;-52
2021/11/29 02:21:25;;;;;;;0.80;0.40;;;3.60;99.90;;;;;;4998128;28;20195;-52
2021/11/29 02:23:55;;;;;;;0.53;0.33;;;3.60;99.90;;;;;;5000136;28;20234;-52
2021/11/29 02:26:31;;;;;;;1.10;0.30;;;3.70;99.90;;;;;;5000207;28;20221;-52
2021/11/29 02:29:00;;;;;;;1.43;0.20;;;3.60;99.90;;;;;;5002045;28;20296;-53
2021/11/29 02:31:33;;;;;;;1.27;0.40;;;3.70;99.90;;;;;;4997286;28;20249;-52
2021/11/29 02:34:13;;;;;;;0.70;0.20;;;3.60;99.90;;;;;;4998750;28;20202;-48
2021/11/29 02:36:40;;;;;;;0.70;0.20;;;3.60;99.90;;;;;;4998638;28;20384;-49
2021/11/29 02:39:10;;;;;;;1.47;0.20;;;3.60;99.90;;;;;;4998707;28;20205;-51
2021/11/29 02:41:37;;;;;;;0.40;0.17;;;3.40;99.90;;;;;;4999930;28;20296;-51
2021/11/29 02:44:05;;;;;;;0.50;0.37;;;3.40;99.90;;;;;;5002851;28;20217;-51
2021/11/29 02:46:32;;;;;;;0.90;0.30;;;3.40;99.90;;;;;;5002120;28;20341;-49
2021/11/29 02:49:00;;;;;;;1.97;0.50;;;3.20;99.90;;;;;;5001765;28;20200;-50
2021/11/29 02:51:39;;;;;;;0.77;0.50;;;3.20;99.90;;;;;;5000439;28;20228;-49
2021/11/29 02:54:09;;;;;;;0.70;0.43;;;3.20;99.90;;;;;;4999151;28;20335;-50
2021/11/29 02:56:39;;;;;;;0.50;0.30;;;3.20;99.90;;;;;;4999494;28;20199;-49
2021/11/29 02:59:08;;;;;;;2.60;0.40;;;3.10;99.90;;;;;;4999236;28;20609;-50
2021/11/29 03:01:37;;;;;;;0.30;0.30;;;3.00;99.90;;;;;;4999084;28;20292;-49
2021/11/29 03:04:04;;;;;;;1.00;0.77;;;3.00;99.90;;;;;;4999866;28;20237;-51
2021/11/29 03:06:31;;;;;;;1.13;0.53;;;3.00;99.90;;;;;;5000498;28;20214;-51
2021/11/29 03:08:58;;;;;;;2.73;0.73;;;3.00;99.90;;;;;;4998359;28;20205;-49
2021/11/29 03:11:27;;;;;;;1.23;0.50;;;3.00;99.90;;;;;;4997327;28;20232;-52
2021/11/29 03:13:55;;;;;;;1.13;0.63;;;3.10;99.90;;;;;;4999590;28;20274;-52
2021/11/29 03:16:22;;;;;;;1.70;0.50;;;3.30;99.90;;;;;;4999104;28;20237;-51
2021/11/29 03:18:49;;;;;;;1.63;0.70;;;3.10;99.90;;;;;;4998127;28;20201;-50
2021/11/29 03:21:18;;;;;;;0.83;0.60;;;3.10;99.90;;;;;;4999996;28;20252;-51
2021/11/29 03:23:48;;;;;;;1.00;0.50;;;3.10;99.90;;;;;;4999608;28;20672;-50
2021/11/29 03:26:18;;;;;;;1.10;0.40;;;3.10;99.90;;;;;;5001481;28;20219;-50
2021/11/29 03:28:48;;;;;;;1.70;0.47;;;3.20;99.90;;;;;;4999810;28;20201;-51
2021/11/29 03:31:17;;;;;;;0.97;0.43;;;3.10;99.90;;;;;;5001621;28;20241;-49
2021/11/29 03:33:46;;;;;;;0.60;0.33;;;3.20;99.90;;;;;;5000448;28;20268;-49
2021/11/29 03:36:13;;;;;;;0.43;0.40;;;3.10;99.90;;;;;;4999889;28;20276;-51
2021/11/29 03:38:41;;;;;;;1.27;0.37;;;3.20;99.90;;;;;;4998567;28;20616;-49
2021/11/29 03:41:08;;;;;;;0.67;0.50;;;3.20;99.90;;;;;;5001234;28;20280;-50
2021/11/29 03:43:35;;;;;;;1.13;0.50;;;3.10;99.90;;;;;;4995338;28;20205;-49
2021/11/29 03:46:02;;;;;;;1.40;0.40;;;3.20;99.90;;;;;;4998470;28;20333;-49
2021/11/29 03:48:30;;;;;;;1.10;0.50;;;3.10;99.90;;;;;;4999535;28;20201;-51
2021/11/29 03:50:57;;;;;;;1.30;0.50;;;3.20;99.90;;;;;;4999276;28;20235;-50
2021/11/29 03:53:24;;;;;;;1.00;0.30;;;3.20;99.90;;;;;;4997341;28;20685;-50
2021/11/29 03:55:53;;;;;;;1.00;0.47;;;3.20;99.90;;;;;;4998783;28;20269;-52
2021/11/29 03:58:20;;;;;;;0.50;0.40;;;3.10;99.90;;;;;;4997110;28;20720;-53
2021/11/29 04:00:47;;;;;;;3.37;0.60;;;3.10;99.90;;;;;;4999500;28;20632;-55
2021/11/29 04:03:14;;;;;;;0.63;0.30;;;3.10;99.90;;;;;;5012217;28;20229;-54
2021/11/29 04:05:41;;;;;;;0.50;0.27;;;2.90;99.90;;;;;;4999300;28;20214;-54
2021/11/29 04:08:07;;;;;;;0.30;0.30;;;2.90;99.90;;;;;;4998327;28;20209;-54
2021/11/29 04:10:39;;;;;;;0.40;0.20;;;3.00;99.90;;;;;;4998421;28;20201;-56
2021/11/29 04:13:06;;;;;;;2.13;0.40;;;3.10;99.90;;;;;;4998640;28;20227;-52
2021/11/29 04:15:33;;;;;;;2.53;0.40;;;3.20;99.90;;;;;;4997921;28;20206;-53
2021/11/29 04:18:00;;;;;;;1.40;0.33;;;3.20;99.90;;;;;;4999651;28;20209;-53
2021/11/29 04:20:27;;;;;;;2.00;0.30;;;3.10;99.90;;;;;;4998636;28;20238;-53
2021/11/29 04:22:54;;;;;;;1.50;0.30;;;2.90;99.90;;;;;;4997705;28;20236;-53
2021/11/29 04:25:24;;;;;;;0.70;0.33;;;3.00;99.90;;;;;;4996666;28;20240;-53
2021/11/29 04:27:53;;;;;;;0.30;0.30;;;2.90;99.90;;;;;;4997986;28;20202;-54
2021/11/29 04:30:24;;;;;;;0.50;0.40;;;2.90;99.90;;;;;;5002353;28;20260;-53
2021/11/29 04:32:53;;;;;;;0.80;0.30;;;2.90;99.90;;;;;;5003413;28;20865;-53
2021/11/29 04:35:20;;;;;;;1.67;0.50;;;2.80;99.90;;;;;;5001866;28;20214;-53
2021/11/29 04:37:47;;;;;;;2.13;0.50;;;2.70;99.90;;;;;;5001527;28;20245;-53
2021/11/29 04:40:15;;;;;;;1.40;0.50;;;2.70;99.90;;;;;;5002362;28;20201;-52
2021/11/29 04:42:42;;;;;;;0.73;0.30;;;2.60;99.90;;;;;;5002109;28;20263;-54
2021/11/29 04:45:10;;;;;;;2.80;0.50;;;2.80;99.90;;;;;;5001970;28;20206;-52
2021/11/29 04:47:37;;;;;;;1.23;0.70;;;2.90;99.90;;;;;;5003231;28;20301;-54
2021/11/29 04:50:06;;;;;;;0.87;0.70;;;3.00;99.90;;;;;;5004220;28;20607;-54
2021/11/29 04:52:34;;;;;;;0.80;0.60;;;3.00;99.90;;;;;;5003871;28;20203;-52
2021/11/29 04:55:06;;;;;;;2.83;0.70;;;3.30;99.90;;;;;;5003679;28;20199;-56
2021/11/29 04:57:33;;;;;;;2.57;0.87;;;3.30;99.90;;;;;;5000759;28;20230;-53
2021/11/29 05:00:00;;;;;;;2.80;1.03;;;3.40;99.90;;;;;;5002141;28;20205;-53
2021/11/29 05:02:27;;;;;;;3.47;0.87;;;3.20;99.90;;;;;;5001216;28;20561;-54
2021/11/29 05:04:54;;;;;;;1.63;0.80;;;3.30;99.90;;;;;;5002932;28;20312;-53
2021/11/29 05:07:21;;;;;;;3.37;0.80;;;3.10;99.90;;;;;;5002690;28;20218;-53
2021/11/29 05:09:48;;;;;;;1.90;0.67;;;3.10;99.90;;;;;;5001912;28;20205;-53
2021/11/29 05:12:15;;;;;;;0.77;0.50;;;3.00;99.90;;;;;;5002665;28;20195;-51
2021/11/29 05:14:44;;;;;;;0.90;0.80;;;2.70;99.90;;;;;;5002481;28;20279;-54
2021/11/29 05:17:11;;;;;;;1.63;0.80;;;2.60;99.90;;;;;;5001964;28;20564;-53
2021/11/29 05:19:38;;;;;;;1.50;0.93;;;2.60;99.90;;;;;;4984124;28;20337;-53
2021/11/29 05:22:05;;;;;;;1.43;0.97;;;2.50;99.90;;;;;;5000848;28;20904;-54
2021/11/29 05:24:32;;;;;;;1.20;0.97;;;2.60;99.90;;;;;;4999146;28;21034;-54
2021/11/29 05:26:59;;;;;;;1.43;1.03;;;2.60;99.90;;;;;;5000758;28;20220;-55
2021/11/29 05:29:26;;;;;;;1.40;1.30;;;2.50;99.90;;;;;;5000350;28;20654;-54
2021/11/29 05:31:53;;;;;;;2.50;1.10;;;2.40;99.90;;;;;;4999807;28;20202;-52
2021/11/29 05:34:20;;;;;;;2.33;1.27;;;2.30;99.90;;;;;;5000471;28;20563;-51
2021/11/29 05:36:47;;;;;;;2.33;1.10;;;2.50;99.90;;;;;;5001190;28;20237;-51
2021/11/29 05:39:15;;;;;;;1.87;1.50;;;2.40;99.90;;;;;;5002322;28;20701;-54
2021/11/29 05:41:43;;;;;;;2.00;1.30;;;2.40;99.90;;;;;;5002762;28;20198;-54
2021/11/29 05:44:11;;;;;;;3.23;1.60;;;2.60;99.90;;;;;;5000682;28;20214;-55
2021/11/29 05:46:38;;;;;;;2.97;2.43;;;2.50;99.90;;;;;;4999181;28;20289;-53
2021/11/29 05:49:05;;;;;;;1.80;1.33;;;2.40;99.90;;;;;;5002306;28;20614;-54
2021/11/29 05:51:32;;;;;;;1.73;1.30;;;2.50;99.90;;;;;;5001262;28;20296;-53
2021/11/29 05:53:59;;;;;;;3.17;1.60;;;2.50;99.90;;;;;;5012272;28;20242;-53
2021/11/29 05:56:26;;;;;;;1.73;1.60;;;2.50;99.90;;;;;;4998662;28;20242;-50
2021/11/29 05:58:53;;;;;;;1.63;1.53;;;2.60;99.90;;;;;;5000653;28;20237;-54
2021/11/29 06:01:22;;;;;;;1.37;1.27;;;2.60;99.90;;;;;;5000099;28;20239;-54
2021/11/29 06:03:50;;;;;;;3.60;1.47;;;2.50;99.90;;;;;;4998625;28;20316;-53
2021/11/29 06:06:17;;;;;;;4.57;1.40;;;2.40;99.90;;;;;;5000637;28;20248;-53
2021/11/29 06:08:44;;;;;;;3.33;1.20;;;2.30;99.90;;;;;;4999808;28;20764;-52
2021/11/29 06:11:11;;;;;;;4.47;1.50;;;2.20;99.90;;;;;;5001677;28;20252;-53
2021/11/29 06:13:38;;;;;;;1.40;1.30;;;2.10;99.90;;;;;;4998944;28;20234;-54
2021/11/29 06:16:05;;;;;;;3.30;1.43;;;2.00;99.90;;;;;;4999988;28;20292;-51
2021/11/29 06:18:33;;;;;;;1.20;1.10;;;2.00;99.90;;;;;;5000326;28;20716;-53
2021/11/29 06:21:00;;;;;;;1.33;1.23;;;2.10;99.90;;;;;;4999821;28;20251;-54
2021/11/29 06:23:26;;;;;;;2.40;1.10;;;2.10;99.90;;;;;;5001705;28;20239;-54
2021/11/29 06:25:53;;;;;;;3.97;1.27;;;1.90;99.90;;;;;;4999710;28;21052;-52
2021/11/29 06:28:20;;;;;;;4.13;1.20;;;2.10;99.90;;;;;;4997806;28;20629;-53
2021/11/29 06:30:47;;;;;;;4.37;1.80;;;2.20;99.90;;;;;;4998098;28;20748;-55
2021/11/29 06:33:14;;;;;;;3.33;1.30;;;2.00;99.90;;;;;;4996070;28;20252;-53
2021/11/29 06:35:41;;;;;;;0.87;0.87;;;2.00;99.90;;;;;;4994885;28;20226;-52
2021/11/29 06:38:08;;;;;;;1.80;1.20;;;2.10;99.90;;;;;;4996902;28;20963;-51
2021/11/29 06:40:35;;;;;;;1.57;1.30;;;2.10;99.90;;;;;;4994790;28;20202;-52
2021/11/29 06:43:03;;;;;;;2.23;1.23;;;2.20;99.90;;;;;;4991674;28;20594;-52
2021/11/29 06:45:30;;;;;;;4.23;1.17;;;2.30;99.90;;;;;;4997351;28;20569;-53
2021/11/29 06:47:57;;;;;;;1.30;1.17;;;2.40;99.90;;;;;;4996777;28;20230;-52
2021/11/29 06:50:24;;;;;;;3.47;1.40;;;2.50;99.90;;;;;;4997842;28;20250;-53
2021/11/29 06:52:51;;;;;;;1.33;1.23;;;2.60;99.90;;;;;;4993637;28;20244;-52
2021/11/29 06:55:20;;;;;;;1.07;0.93;;;2.70;99.90;;;;;;4996035;28;20257;-53
2021/11/29 06:57:48;;;;;;;3.47;1.20;;;2.70;99.90;;;;;;4998174;28;20256;-53
2021/11/29 07:00:20;;;;;;;2.10;1.13;;;2.80;99.90;;;;;;4992109;28;20267;-53
2021/11/29 07:02:48;;;;;;;1.63;1.20;;;2.90;99.90;;;;;;4996723;28;20292;-53
2021/11/29 07:05:15;;;;;;;2.60;1.20;;;2.90;99.90;;;;;;4995913;28;20896;-54
2021/11/29 07:07:44;;;;;;;2.40;1.00;;;2.90;99.90;;;;;;4996905;28;20252;-52
2021/11/29 07:10:11;;;;;;;3.07;1.37;;;3.00;99.90;;;;;;4998171;28;20561;-53
2021/11/29 07:12:44;;;;;;;3.20;1.50;;;3.00;99.90;;;;;;4998098;28;20259;-53
2021/11/29 07:15:11;;;;;;;2.23;1.20;;;3.00;99.90;;;;;;4996464;28;20642;-55
2021/11/29 07:17:39;;;;;;;3.73;1.40;;;3.00;99.90;;;;;;4993491;28;20855;-53
2021/11/29 07:20:07;;;;;;;2.40;1.80;;;3.00;99.90;;;;;;4994542;28;20205;-55
2021/11/29 07:22:34;;;;;;;2.90;1.50;;;2.90;99.90;;;;;;4999276;28;20249;-53
2021/11/29 07:25:04;;;;;;;2.93;1.40;;;2.80;99.90;;;;;;4979308;28;21139;-52
2021/11/29 07:27:33;;;;;;;2.07;1.47;;;2.60;99.90;;;;;;4996914;28;20226;-54
2021/11/29 07:30:05;;;;;;;2.37;1.43;;;2.70;99.90;;;;;;4996935;28;20672;-53
2021/11/29 07:32:32;;;;;;;2.70;1.37;;;2.80;99.90;;;;;;4997661;28;20307;-51
2021/11/29 07:34:59;;;;;;;5.33;1.20;;;2.70;99.90;;;;;;4997325;28;20625;-53
2021/11/29 07:37:26;;;;;;;2.63;1.00;;;2.60;99.90;;;;;;4997951;28;20336;-52
2021/11/29 07:39:53;;;;;;;1.57;1.30;;;2.70;99.90;;;;;;4994671;28;20205;-54
2021/11/29 07:42:21;;;;;;;4.50;1.10;;;2.70;99.90;;;;;;4996377;28;20327;-53
2021/11/29 07:44:48;;;;;;;2.77;1.33;;;2.70;99.90;;;;;;4995440;28;20266;-51
2021/11/29 07:47:15;;;;;;;1.73;0.90;;;2.80;99.90;;;;;;4996864;28;20218;-55
2021/11/29 07:49:42;;;;;;;3.30;1.20;;;2.80;99.90;;;;;;4995678;28;20233;-53
2021/11/29 07:52:09;;;;;;;1.80;1.30;;;3.00;99.90;;;;;;4994488;28;20230;-53
2021/11/29 07:54:36;;;;;;;1.73;0.80;;;3.00;99.90;;;;;;4996223;28;20207;-53
2021/11/29 07:57:03;;;;;;;2.43;1.00;;;3.10;99.90;;;;;;4994968;28;20229;-54
2021/11/29 07:59:30;;;;;;;2.93;0.70;;;3.10;99.90;;;;;;4993119;28;20233;-53
2021/11/29 08:02:16;;;;;;;3.13;1.03;;;3.20;99.90;;;;;;4997278;28;20230;-52
2021/11/29 08:04:43;;;;;;;3.53;1.00;;;3.40;99.90;;;;;;4994154;28;20599;-54
2021/11/29 08:07:10;;;;;;;3.70;1.10;;;3.30;99.90;;;;;;4993669;28;20320;-54
2021/11/29 08:09:37;;;;;;;2.27;0.70;;;3.50;99.90;;;;;;4995721;28;20762;-54
2021/11/29 08:12:04;;;;;;;3.27;1.13;;;3.50;99.90;;;;;;4996086;28;20205;-54
2021/11/29 08:14:31;;;;;;;2.50;1.00;;;3.40;99.90;;;;;;5010862;28;20635;-52
2021/11/29 08:16:58;;;;;;;4.67;0.90;;;3.50;99.90;;;;;;4993506;28;20244;-54
2021/11/29 08:19:25;;;;;;;2.43;0.90;;;3.50;99.90;;;;;;4993679;28;20617;-53
2021/11/29 08:21:52;;;;;;;2.90;0.70;;;3.70;99.90;;;;;;4996665;28;20203;-53
2021/11/29 08:24:19;;;;;;;2.37;0.80;;;3.80;99.90;;;;;;4994734;28;21589;-53
2021/11/29 08:26:46;;;;;;;6.20;1.03;;;3.90;99.90;;;;;;4998369;28;20222;-54
2021/11/29 08:29:13;;;;;;;1.87;0.90;;;4.00;99.90;;;;;;4995819;28;20669;-52
2021/11/29 08:31:40;;;;;;;4.57;0.90;;;4.00;99.90;;;;;;4994023;28;20598;-53
2021/11/29 08:34:07;;;;;;;6.93;1.47;;;4.00;99.90;;;;;;4996887;28;20604;-53
2021/11/29 08:36:35;;;;;;;2.60;0.90;;;4.10;99.90;;;;;;4988359;28;20293;-53
2021/11/29 08:39:05;;;;;;;5.27;0.87;;;4.10;99.90;;;;;;4996732;28;20205;-52
2021/11/29 08:41:33;;;;;;;4.67;1.10;;;4.10;99.90;;;;;;4996429;28;20300;-54
2021/11/29 08:44:03;;;;;;;3.40;0.83;;;4.30;99.90;;;;;;4997164;28;20961;-53
2021/11/29 08:46:31;;;;;;;3.50;0.53;;;4.30;99.90;;;;;;4995068;28;20304;-52
2021/11/29 08:48:59;;;;;;;3.80;0.73;;;4.40;99.90;;;;;;4996813;28;20213;-54
2021/11/29 08:51:26;;;;;;;5.33;0.93;;;4.40;99.90;;;;;;4996708;28;20269;-53
2021/11/29 08:53:53;;;;;;;3.67;1.23;;;4.50;99.90;;;;;;4996794;28;20202;-53
2021/11/29 08:56:20;;;;;;;3.70;1.10;;;4.50;99.90;;;;;;4996474;28;20211;-53
2021/11/29 08:58:47;;;;;;;4.00;1.00;;;4.60;99.90;;;;;;4997486;28;20217;-53
2021/11/29 09:01:14;;;;;;;4.73;0.90;;;4.60;99.90;;;;;;4997402;28;20307;-51
2021/11/29 09:03:41;;;;;;;5.70;0.97;;;4.60;99.90;;;;;;4995838;28;20201;-55
2021/11/29 09:06:08;;;;;;;3.47;0.80;;;4.80;99.90;;;;;;4997284;28;20241;-53
2021/11/29 09:08:36;;;;;;;3.30;0.97;;;4.80;99.90;;;;;;4993501;28;20208;-54
2021/11/29 09:11:02;;;;;;;7.40;1.00;;;4.90;99.90;;;;;;4998887;28;20200;-52
2021/11/29 09:13:40;;;;;;;3.30;0.80;;;5.00;99.90;;;;;;4995874;28;20812;-54
2021/11/29 09:16:09;;;;;;;4.10;0.67;;;5.10;99.90;;;;;;4994234;28;20196;-54
2021/11/29 09:18:38;;;;;;;5.90;1.27;;;5.10;99.90;;;;;;4997930;28;20211;-54
2021/11/29 09:21:05;;;;;;;4.73;1.40;;;5.00;99.90;;;;;;4998135;28;20305;-53
2021/11/29 09:23:33;;;;;;;7.43;1.10;;;5.00;99.90;;;;;;5004448;28;20212;-53
2021/11/29 09:26:01;;;;;;;3.23;1.00;;;5.00;99.90;;;;;;4997924;28;20234;-55
2021/11/29 09:28:28;;;;;;;7.77;1.80;;;5.10;99.90;;;;;;4999120;28;20216;-52
2021/11/29 09:30:55;;;;;;;8.03;1.30;;;5.30;99.90;;;;;;5001414;28;20203;-60
2021/11/29 09:33:22;;;;;;;5.00;1.40;;;5.40;99.90;;;;;;4999356;28;20405;-59
2021/11/29 09:35:50;;;;;;;6.10;1.00;;;5.40;99.90;;;;;;4997316;28;20214;-55
2021/11/29 09:38:17;;;;;;;5.00;1.27;;;5.50;99.90;;;;;;5000228;28;20780;-54
2021/11/29 09:40:45;;;;;;;7.07;1.70;;;5.40;99.90;;;;;;4997206;28;20207;-55
2021/11/29 09:43:14;;;;;;;5.40;1.47;;;5.40;99.90;;;;;;5001937;28;20258;-53
2021/11/29 09:45:43;;;;;;;4.13;1.33;;;5.40;99.90;;;;;;4997919;28;20218;-55
2021/11/29 09:48:11;;;;;;;4.83;1.30;;;5.40;99.90;;;;;;4999514;28;20227;-53
2021/11/29 09:50:41;;;;;;;5.03;1.33;;;5.40;99.90;;;;;;4996902;28;20286;-51
2021/11/29 09:53:09;;;;;;;5.37;1.30;;;5.40;99.90;;;;;;5000767;28;20202;-52
2021/11/29 09:55:37;;;;;;;2.00;1.30;;;5.40;99.90;;;;;;4994475;28;20217;-55
2021/11/29 09:58:04;;;;;;;5.77;1.30;;;5.50;99.90;;;;;;4999308;28;20291;-55
2021/11/29 10:00:38;;;;;;;3.53;1.10;;;5.40;99.90;;;;;;4999900;28;20203;-53
2021/11/29 10:03:06;;;;;;;3.07;1.20;;;5.40;99.90;;;;;;4999517;28;20215;-53
2021/11/29 10:05:36;;;;;;;4.33;1.43;;;5.50;99.90;;;;;;4999441;28;20311;-52
2021/11/29 10:08:39;;;;;;;7.57;1.77;;;5.70;99.90;;;;;;4997147;28;20223;-55
2021/11/29 10:11:24;;;;;;;5.10;1.10;;;5.80;99.90;;;;;;4992008;28;20205;-53
2021/11/29 10:13:58;;;;;;;3.87;1.83;;;5.80;99.90;;;;;;4996331;28;20665;-53
2021/11/29 10:16:45;;;;;;;8.47;2.27;;;5.70;99.90;;;;;;4999697;28;20338;-56
2021/11/29 10:19:15;;;;;;;2.67;1.50;;;5.90;99.90;;;;;;5000095;28;20222;-54
2021/11/29 10:21:42;;;;;;;2.83;1.50;;;5.90;99.90;;;;;;4998706;28;20241;-52
2021/11/29 10:24:16;;;;;;;4.37;1.53;;;5.80;99.90;;;;;;4999941;28;20232;-52
2021/11/29 10:26:57;;;;;;;4.40;1.43;;;6.20;99.90;;;;;;4998833;28;20595;-52
2021/11/29 10:29:26;;;;;;;7.30;1.53;;;6.50;99.90;;;;;;4996525;28;20291;-54
2021/11/29 10:31:55;;;;;;;4.80;1.50;;;6.50;99.90;;;;;;5004327;28;21064;-54
2021/11/29 10:34:33;;;;;;;3.43;1.33;;;6.40;99.90;;;;;;4999246;28;20236;-54
2021/11/29 10:37:12;;;;;;;4.77;1.40;;;6.60;99.90;;;;;;4997198;28;20259;-54
2021/11/29 10:39:43;;;;;;;1.33;0.70;;;6.60;99.90;;;;;;5000401;28;20206;-53
2021/11/29 10:42:14;;;;;;;7.57;1.57;;;6.50;99.90;;;;;;4995911;28;20569;-52
2021/11/29 10:44:44;;;;;;;5.73;1.70;;;6.50;99.90;;;;;;4994142;28;20297;-53
2021/11/29 10:47:14;;;;;;;2.37;1.43;;;6.50;99.90;;;;;;4996368;28;20228;-54
2021/11/29 10:49:44;;;;;;;3.83;1.50;;;6.60;99.90;;;;;;4997413;28;20205;-53
2021/11/29 10:52:17;;;;;;;2.67;1.30;;;6.70;99.90;;;;;;4994118;28;20291;-53
2021/11/29 10:54:45;;;;;;;2.60;1.70;;;6.80;99.90;;;;;;4998013;28;20734;-53
2021/11/29 10:57:14;;;;;;;4.43;1.83;;;7.00;99.90;;;;;;4997639;28;20309;-55
2021/11/29 10:59:44;;;;;;;1.97;1.77;;;7.00;99.90;;;;;;4994143;28;20205;-54
2021/11/29 11:02:20;;;;;;;4.10;1.00;;;7.00;99.90;;;;;;4996531;28;20269;-53
2021/11/29 11:05:00;;;;;;;3.43;1.20;;;6.90;99.90;;;;;;5001207;28;20216;-54
2021/11/29 11:07:34;;;;;;;3.53;1.17;;;6.90;99.90;;;;;;4997564;28;20213;-53
2021/11/29 11:10:04;;;;;;;2.30;1.37;;;6.90;99.90;;;;;;4999262;28;20221;-52
2021/11/29 11:12:33;;;;;;;3.47;2.13;;;7.20;99.90;;;;;;4998109;28;20291;-53
2021/11/29 11:15:07;;;;;;;3.27;1.60;;;7.10;99.90;;;;;;4994989;28;20258;-55
2021/11/29 11:17:55;;;;;;;3.27;1.40;;;7.40;99.90;;;;;;4998910;28;20201;-54
2021/11/29 11:20:22;;;;;;;4.90;1.63;;;7.50;99.90;;;;;;4998361;28;20691;-51
2021/11/29 11:22:52;;;;;;;4.20;1.40;;;7.70;99.90;;;;;;4994975;28;20292;-55
2021/11/29 11:25:26;;;;;;;4.90;1.60;;;8.00;99.90;;;;;;4998107;28;20218;-54
2021/11/29 11:27:55;;;;;;;4.83;1.40;;;8.40;99.90;;;;;;4995159;28;20604;-54
2021/11/29 11:30:24;;;;;;;5.97;1.20;;;8.50;99.90;;;;;;4998108;28;20687;-52
2021/11/29 11:33:07;;;;;;;3.83;1.27;;;8.10;99.90;;;;;;4996097;28;20198;-53
2021/11/29 11:35:40;;;;;;;4.63;1.33;;;7.80;99.90;;;;;;4995391;28;20293;-55
2021/11/29 11:38:19;;;;;;;6.17;1.30;;;7.80;99.90;;;;;;4992674;28;20261;-52
2021/11/29 11:40:50;;;;;;;4.00;1.50;;;7.70;99.90;;;;;;5008000;28;20237;-53
2021/11/29 11:43:19;;;;;;;3.87;1.50;;;7.70;99.90;;;;;;4997080;28;20506;-54
2021/11/29 11:45:48;;;;;;;1.90;1.20;;;8.10;99.90;;;;;;4993663;28;20229;-52
2021/11/29 11:48:17;;;;;;;4.87;1.00;;;8.10;99.90;;;;;;4995794;28;20220;-52
2021/11/29 11:50:48;;;;;;;1.67;1.13;;;8.20;99.90;;;;;;4994438;28;20208;-52
2021/11/29 11:53:15;;;;;;;2.03;1.20;;;8.10;99.90;;;;;;4996196;28;20542;-54
2021/11/29 11:55:46;;;;;;;2.50;1.00;;;8.00;99.90;;;;;;4996283;28;20207;-53
2021/11/29 11:58:40;;;;;;;2.83;0.87;;;7.80;99.90;;;;;;4994797;28;20205;-51
2021/11/29 12:01:15;;;;;;;3.33;1.47;;;7.70;99.90;;;;;;4995377;28;20673;-52
2021/11/29 12:03:47;;;;;;;2.60;1.37;;;7.70;99.90;;;;;;4996883;28;20251;-52
2021/11/29 12:06:17;;;;;;;2.90;0.90;;;7.70;99.90;;;;;;4997334;28;20205;-52
2021/11/29 12:08:47;;;;;;;3.00;1.00;;;7.90;99.90;;;;;;4997317;28;20581;-53
2021/11/29 12:11:37;;;;;;;4.77;1.20;;;7.80;99.90;;;;;;4994502;28;20195;-53
2021/11/29 12:14:07;;;;;;;4.07;2.20;;;7.90;99.90;;;;;;4996398;28;20232;-52
2021/11/29 12:16:42;;;;;;;3.27;1.63;;;8.10;99.90;;;;;;4995453;28;20255;-52
2021/11/29 12:19:27;;;;;;;4.40;2.00;;;8.20;99.90;;;;;;4999044;28;20237;-52
2021/11/29 12:22:20;;;;;;;3.33;1.40;;;8.50;99.90;;;;;;4994891;28;20258;-52
2021/11/29 12:24:59;;;;;;;4.70;1.90;;;8.50;99.90;;;;;;4988222;28;20831;-52
2021/11/29 12:27:50;;;;;;;2.97;1.90;;;8.70;99.90;;;;;;4996555;28;20643;-52
2021/11/29 12:30:33;;;;;;;4.20;2.03;;;9.20;99.90;;;;;;4995219;28;20308;-52
2021/11/29 12:33:03;;;;;;;4.47;1.90;;;9.40;99.90;;;;;;4994834;28;20303;-51
2021/11/29 12:35:52;;;;;;;4.60;2.77;;;9.50;99.90;;;;;;4986775;28;20395;-53
2021/11/29 12:38:21;;;;;;;3.70;1.20;;;9.60;99.90;;;;;;4991422;28;20246;-52
2021/11/29 12:41:06;;;;;;;0.90;0.53;;;9.40;99.90;;;;;;4995020;28;21042;-52
2021/11/29 12:43:44;;;;;;;1.53;0.40;;;9.50;99.90;;;;;;4992419;28;20660;-51
2021/11/29 12:46:21;;;;;;;1.27;0.30;;;9.50;99.90;;;;;;4991597;28;20728;-52
2021/11/29 12:48:49;;;;;;;4.23;0.80;;;9.70;99.90;;;;;;4993183;28;20219;-52
2021/11/29 12:51:43;;;;;;;2.03;0.80;;;9.80;99.90;;;;;;4998108;28;20258;-55
2021/11/29 12:54:37;;;;;;;2.00;0.60;;;9.90;99.90;;;;;;4995989;28;20345;-52
2021/11/29 12:57:19;;;;;;;2.10;0.50;;;10.20;99.90;;;;;;4997359;28;20262;-48
2021/11/29 12:59:53;;;;;;;3.67;0.60;;;10.30;99.90;;;;;;4997496;28;20244;-50
2021/11/29 13:02:35;;;;;;;7.43;0.97;;;9.80;99.90;;;;;;5000404;28;20236;-49
2021/11/29 13:05:25;;;;;;;3.00;0.60;;;9.70;99.90;;;;;;4998088;28;20202;-48
2021/11/29 13:08:02;;;;;;;8.50;0.80;;;9.50;99.90;;;;;;5001145;28;21143;-49
2021/11/29 13:10:53;;;;;;;2.03;0.63;;;9.40;99.90;;;;;;5000695;28;20214;-49